Time;durP1;ratioP1;P1;durP2;ratioP2;P2;SDS_P1;SDS_P2;PMS_P1;PMS_P2;Temp;Humidity;BMP_temperature;BMP_pressure;BME280_temperature;BME280_humidity;BME280_pressure;Samples;Min_cycle;Max_cycle;Signal;HPM_P1;HPM_P2
2023/08/07 00:01:55;;;;;;;1.92;0.60;;;;;;;;;;10573604;27;20075;-76
2023/08/07 00:07:00;;;;;;;2.13;0.90;;;;;;;;;;10570110;27;20504;-77
2023/08/07 00:12:03;;;;;;;1.27;0.93;;;;;;;;;;10564953;28;20040;-76
2023/08/07 00:17:06;;;;;;;0.93;0.55;;;;;;;;;;10570971;27;20107;-76
2023/08/07 00:22:11;;;;;;;0.95;0.65;;;;;;;;;;10563775;28;20035;-76
2023/08/07 00:27:14;;;;;;;1.95;0.90;;;;;;;;;;10550207;28;20502;-78
2023/08/07 00:32:17;;;;;;;0.90;0.70;;;;;;;;;;10556467;28;20036;-77
2023/08/07 00:37:21;;;;;;;1.45;0.80;;;;;;;;;;10554425;28;20032;-77
2023/08/07 00:42:23;;;;;;;;;;;;;;;;;;10557263;28;20046;-77
2023/08/07 00:47:27;;;;;;;1.52;0.65;;;;;;;;;;10548673;27;19924;-77
2023/08/07 00:52:31;;;;;;;1.58;0.73;;;;;;;;;;10566207;27;20055;-78
2023/08/07 00:57:34;;;;;;;1.75;0.82;;;;;;;;;;10567182;27;20484;-78
2023/08/07 01:02:37;;;;;;;2.05;0.82;;;;;;;;;;10564015;27;20044;-78
2023/08/07 01:07:41;;;;;;;1.77;0.80;;;;;;;;;;10566824;27;20413;-77
2023/08/07 01:12:48;;;;;;;4.13;1.00;;;;;;;;;;10573816;27;20063;-77
2023/08/07 01:17:51;;;;;;;1.35;0.90;;;;;;;;;;10561120;27;20048;-77
2023/08/07 01:22:55;;;;;;;0.88;0.52;;;;;;;;;;10558886;27;20418;-77
2023/08/07 01:28:03;;;;;;;1.92;1.10;;;;;;;;;;10558502;27;20044;-77
2023/08/07 01:33:10;;;;;;;1.33;0.70;;;;;;;;;;10561462;27;20036;-77
2023/08/07 01:38:14;;;;;;;1.70;0.75;;;;;;;;;;10567614;27;20579;-77
2023/08/07 01:43:18;;;;;;;1.10;0.57;;;;;;;;;;10567598;27;20031;-77
2023/08/07 01:48:21;;;;;;;1.30;1.00;;;;;;;;;;10565261;27;20039;-77
2023/08/07 01:53:29;;;;;;;2.10;1.20;;;;;;;;;;10570160;27;20474;-77
2023/08/07 01:58:31;;;;;;;;;;;;;;;;;;10556498;27;20040;-77
2023/08/07 02:03:34;;;;;;;1.00;0.68;;;;;;;;;;10568344;27;19924;-78
2023/08/07 02:08:38;;;;;;;2.83;0.95;;;;;;;;;;10559856;27;20043;-77
2023/08/07 02:13:41;;;;;;;1.77;0.80;;;;;;;;;;10556072;27;20097;-76
2023/08/07 02:18:44;;;;;;;0.52;0.50;;;;;;;;;;10557168;27;20139;-77
2023/08/07 02:23:49;;;;;;;0.68;0.38;;;;;;;;;;10559738;27;20100;-77
2023/08/07 02:28:51;;;;;;;2.58;0.90;;;;;;;;;;10559466;27;20045;-77
2023/08/07 02:33:54;;;;;;;2.83;1.20;;;;;;;;;;10565725;27;20040;-77
2023/08/07 02:38:58;;;;;;;1.80;0.93;;;;;;;;;;10564658;27;20067;-77
2023/08/07 02:44:02;;;;;;;3.42;1.15;;;;;;;;;;10568507;27;20126;-77
2023/08/07 02:49:04;;;;;;;1.45;1.20;;;;;;;;;;10562769;27;20050;-77
2023/08/07 02:54:08;;;;;;;2.60;1.10;;;;;;;;;;10558874;27;20046;-77
2023/08/07 02:59:11;;;;;;;2.08;1.13;;;;;;;;;;10557990;27;20082;-77
2023/08/07 03:04:14;;;;;;;1.42;0.90;;;;;;;;;;10555701;27;20549;-77
2023/08/07 03:09:18;;;;;;;2.63;1.30;;;;;;;;;;10556449;27;20044;-78
2023/08/07 03:14:21;;;;;;;2.10;1.27;;;;;;;;;;10564816;27;20074;-77
2023/08/07 03:19:24;;;;;;;1.20;0.90;;;;;;;;;;10563638;27;20044;-77
2023/08/07 03:24:28;;;;;;;2.40;1.13;;;;;;;;;;10558826;27;20131;-77
2023/08/07 03:29:31;;;;;;;2.05;1.20;;;;;;;;;;10569957;27;20071;-77
2023/08/07 03:34:34;;;;;;;1.23;0.90;;;;;;;;;;10568795;27;20503;-77
2023/08/07 03:39:38;;;;;;;0.90;0.70;;;;;;;;;;10563445;27;20127;-76
2023/08/07 03:44:41;;;;;;;1.27;0.98;;;;;;;;;;10571291;27;20024;-76
2023/08/07 03:49:44;;;;;;;2.65;1.23;;;;;;;;;;10561121;27;20052;-77
2023/08/07 03:54:48;;;;;;;2.13;0.93;;;;;;;;;;10561765;27;20501;-77
2023/08/07 03:59:52;;;;;;;1.98;1.13;;;;;;;;;;10538911;27;20046;-77
2023/08/07 04:04:54;;;;;;;1.98;1.00;;;;;;;;;;10561032;27;20039;-76
2023/08/07 04:09:58;;;;;;;4.60;1.45;;;;;;;;;;10562740;27;20131;-77
2023/08/07 04:15:01;;;;;;;1.88;1.05;;;;;;;;;;10562755;27;20134;-77
2023/08/07 04:20:05;;;;;;;3.45;1.30;;;;;;;;;;10565002;27;20052;-77
2023/08/07 04:25:09;;;;;;;2.38;0.88;;;;;;;;;;10580923;27;20618;-77
2023/08/07 04:30:13;;;;;;;2.00;1.20;;;;;;;;;;10573499;27;20066;-78
2023/08/07 04:35:15;;;;;;;1.90;0.90;;;;;;;;;;10578500;27;20074;-79
2023/08/07 04:40:19;;;;;;;5.27;1.60;;;;;;;;;;10572293;27;20044;-78
2023/08/07 04:45:22;;;;;;;1.88;1.00;;;;;;;;;;10574865;27;20039;-77
2023/08/07 04:50:25;;;;;;;3.17;1.10;;;;;;;;;;10571864;27;20462;-77
2023/08/07 04:55:29;;;;;;;2.67;1.30;;;;;;;;;;10571911;27;20088;-77
2023/08/07 05:00:32;;;;;;;3.20;1.17;;;;;;;;;;10591873;27;20051;-78
2023/08/07 05:05:35;;;;;;;3.47;1.10;;;;;;;;;;10589727;27;20130;-77
2023/08/07 05:10:38;;;;;;;1.65;0.93;;;;;;;;;;10594186;27;20047;-76
2023/08/07 05:15:42;;;;;;;1.70;0.98;;;;;;;;;;10612049;27;20435;-75
2023/08/07 05:20:44;;;;;;;8.02;1.58;;;;;;;;;;10583421;27;20039;-76
2023/08/07 05:25:48;;;;;;;1.27;1.00;;;;;;;;;;10589346;27;20134;-76
2023/08/07 05:30:51;;;;;;;2.72;1.20;;;;;;;;;;10574644;27;20500;-77
2023/08/07 05:35:55;;;;;;;3.40;1.20;;;;;;;;;;10568884;27;20033;-77
2023/08/07 05:40:58;;;;;;;;;;;;;;;;;;10565584;27;20055;-77
2023/08/07 05:46:02;;;;;;;2.42;1.00;;;;;;;;;;10569001;27;19920;-77
2023/08/07 05:51:05;;;;;;;3.35;1.00;;;;;;;;;;10565053;27;20071;-77
2023/08/07 05:56:08;;;;;;;3.65;1.20;;;;;;;;;;10563594;27;20097;-77
2023/08/07 06:01:12;;;;;;;3.85;1.20;;;;;;;;;;10567868;27;20505;-77
2023/08/07 06:06:15;;;;;;;4.75;1.60;;;;;;;;;;10578450;27;20039;-78
2023/08/07 06:11:18;;;;;;;1.88;1.13;;;;;;;;;;10566969;27;20569;-77
2023/08/07 06:16:22;;;;;;;2.97;1.33;;;;;;;;;;10569875;27;20045;-78
2023/08/07 06:21:24;;;;;;;4.30;1.48;;;;;;;;;;10566762;27;20261;-77
2023/08/07 06:26:27;;;;;;;2.00;1.20;;;;;;;;;;10569182;27;20032;-77
2023/08/07 06:31:31;;;;;;;6.05;1.27;;;;;;;;;;10567313;27;20108;-78
2023/08/07 06:36:34;;;;;;;2.97;1.05;;;;;;;;;;10564404;27;20043;-77
2023/08/07 06:41:38;;;;;;;1.67;1.10;;;;;;;;;;10568611;27;20705;-77
2023/08/07 06:46:42;;;;;;;1.67;1.10;;;;;;;;;;10568624;27;20117;-77
2023/08/07 06:51:45;;;;;;;1.65;1.00;;;;;;;;;;10570977;27;20043;-77
2023/08/07 06:56:47;;;;;;;1.60;1.00;;;;;;;;;;10576411;27;20134;-76
2023/08/07 07:01:52;;;;;;;1.75;1.25;;;;;;;;;;10567691;27;20406;-77
2023/08/07 07:06:55;;;;;;;1.42;0.93;;;;;;;;;;10561323;27;20048;-78
2023/08/07 07:11:58;;;;;;;4.27;1.17;;;;;;;;;;10566185;27;20046;-77
2023/08/07 07:17:03;;;;;;;3.35;1.20;;;;;;;;;;10556165;27;20100;-77
2023/08/07 07:22:05;;;;;;;1.83;1.00;;;;;;;;;;10561893;27;20135;-77
2023/08/07 07:27:08;;;;;;;3.40;1.20;;;;;;;;;;10564073;27;20573;-76
2023/08/07 07:32:12;;;;;;;2.70;1.10;;;;;;;;;;10566196;27;20115;-76
2023/08/07 07:37:16;;;;;;;1.65;0.75;;;;;;;;;;10568731;27;20044;-78
2023/08/07 07:42:19;;;;;;;2.67;1.23;;;;;;;;;;10567279;27;20055;-77
2023/08/07 07:47:23;;;;;;;2.03;1.00;;;;;;;;;;10571917;27;20040;-76
2023/08/07 07:52:26;;;;;;;3.20;1.00;;;;;;;;;;10566786;27;20105;-79
2023/08/07 07:57:29;;;;;;;3.43;1.37;;;;;;;;;;10575468;27;20451;-76
2023/08/07 08:02:33;;;;;;;2.53;1.30;;;;;;;;;;10560594;27;20061;-76
2023/08/07 08:07:38;;;;;;;1.92;0.77;;;;;;;;;;10570255;27;20454;-78
2023/08/07 08:12:50;;;;;;;1.25;0.80;;;;;;;;;;10582739;27;20482;-76
2023/08/07 08:18:01;;;;;;;3.95;1.10;;;;;;;;;;10570247;27;20043;-76
2023/08/07 08:23:22;;;;;;;2.15;1.08;;;;;;;;;;10578253;28;20029;-77
2023/08/07 08:28:34;;;;;;;;;;;;;;;;;;10556615;28;20885;-76
2023/08/07 08:33:51;;;;;;;2.42;1.30;;;;;;;;;;10551361;28;20286;-76
2023/08/07 08:39:11;;;;;;;2.35;1.15;;;;;;;;;;10547284;28;20510;-76
2023/08/07 08:44:20;;;;;;;3.28;1.40;;;;;;;;;;10546376;28;20514;-77
2023/08/07 08:49:39;;;;;;;4.22;1.17;;;;;;;;;;10562402;28;20118;-77
2023/08/07 08:55:03;;;;;;;2.60;1.20;;;;;;;;;;10558275;28;20518;-77
2023/08/07 09:00:20;;;;;;;1.92;0.90;;;;;;;;;;10562544;28;20114;-77
2023/08/07 09:05:45;;;;;;;2.53;1.48;;;;;;;;;;10568254;28;20474;-78
2023/08/07 09:10:54;;;;;;;1.57;1.10;;;;;;;;;;10561631;27;20071;-76
2023/08/07 09:16:04;;;;;;;2.13;1.00;;;;;;;;;;10573941;27;20294;-77
2023/08/07 09:21:24;;;;;;;2.63;1.25;;;;;;;;;;10562799;27;20039;-75
2023/08/07 09:26:35;;;;;;;2.55;1.13;;;;;;;;;;10567583;27;20448;-76
2023/08/07 09:31:46;;;;;;;1.30;0.82;;;;;;;;;;10549982;27;20437;-75
2023/08/07 09:36:50;;;;;;;1.25;1.15;;;;;;;;;;10544283;27;20051;-76
2023/08/07 09:42:11;;;;;;;1.30;1.13;;;;;;;;;;10571265;27;20036;-76
2023/08/07 09:47:41;;;;;;;1.73;0.98;;;;;;;;;;10543657;27;20099;-76
2023/08/07 09:53:01;;;;;;;6.57;1.55;;;;;;;;;;10568780;27;20047;-76
2023/08/07 09:58:17;;;;;;;4.53;1.63;;;;;;;;;;10573325;27;20122;-77
2023/08/07 10:03:27;;;;;;;2.55;1.17;;;;;;;;;;10577303;27;20508;-78
2023/08/07 10:08:47;;;;;;;2.33;1.40;;;;;;;;;;10570721;27;20039;-78
2023/08/07 10:13:52;;;;;;;1.38;1.02;;;;;;;;;;10569294;27;20123;-77
2023/08/07 10:19:08;;;;;;;4.85;1.48;;;;;;;;;;10575481;27;20068;-84
2023/08/07 10:24:15;;;;;;;1.83;1.33;;;;;;;;;;10573172;27;20099;-88
2023/08/07 10:29:27;;;;;;;2.00;1.40;;;;;;;;;;10570179;27;20147;-88
2023/08/07 10:34:40;;;;;;;3.15;1.55;;;;;;;;;;10580025;27;20073;-89
2023/08/07 10:40:02;;;;;;;1.83;1.30;;;;;;;;;;10553910;27;20122;-91
2023/08/07 10:45:12;;;;;;;2.53;1.50;;;;;;;;;;10561233;27;20059;-89
2023/08/07 10:50:21;;;;;;;2.10;1.70;;;;;;;;;;10547258;27;20423;-89
2023/08/07 10:55:38;;;;;;;3.88;1.70;;;;;;;;;;10560411;27;20394;-89
2023/08/07 11:00:50;;;;;;;2.03;1.65;;;;;;;;;;10566073;27;20055;-88
2023/08/07 11:06:06;;;;;;;4.07;1.40;;;;;;;;;;10551676;27;20052;-90
2023/08/07 11:11:22;;;;;;;1.23;1.13;;;;;;;;;;10570765;27;20338;-92
2023/08/07 11:16:29;;;;;;;1.75;1.30;;;;;;;;;;10572090;27;20078;-87
2023/08/07 11:27:06;;;;;;;2.72;1.30;;;;;;;;;;10568745;27;20045;-86
2023/08/07 11:32:11;;;;;;;1.98;1.25;;;;;;;;;;10554804;27;20105;-87
2023/08/07 11:37:24;;;;;;;2.08;1.30;;;;;;;;;;10571776;27;20040;-87
2023/08/07 11:43:01;;;;;;;3.28;1.27;;;;;;;;;;10568522;27;20055;-88
2023/08/07 11:48:09;;;;;;;3.72;1.20;;;;;;;;;;10544803;27;20040;-86
2023/08/07 11:53:22;;;;;;;3.03;1.20;;;;;;;;;;10557291;27;20239;-85
2023/08/07 11:58:29;;;;;;;1.88;1.17;;;;;;;;;;10560031;27;20044;-86
2023/08/07 12:03:41;;;;;;;2.85;1.60;;;;;;;;;;10569868;27;20094;-87
2023/08/07 12:09:07;;;;;;;1.63;1.20;;;;;;;;;;10563757;27;20752;-87
2023/08/07 12:14:22;;;;;;;2.55;1.40;;;;;;;;;;10578253;27;20089;-86
2023/08/07 12:19:45;;;;;;;1.38;1.00;;;;;;;;;;10581409;27;20040;-84
2023/08/07 12:24:51;;;;;;;1.65;1.23;;;;;;;;;;10591806;27;20047;-88
2023/08/07 12:29:59;;;;;;;3.38;1.33;;;;;;;;;;10587690;28;20038;-86
2023/08/07 12:35:11;;;;;;;2.08;1.10;;;;;;;;;;10567755;28;20414;-82
2023/08/07 12:40:23;;;;;;;1.42;1.10;;;;;;;;;;10563791;28;20066;-86
2023/08/07 12:45:31;;;;;;;1.70;1.10;;;;;;;;;;10571833;27;20066;-85
2023/08/07 12:50:44;;;;;;;3.25;1.40;;;;;;;;;;10561493;27;20043;-85
2023/08/07 12:55:57;;;;;;;4.07;1.25;;;;;;;;;;10578360;27;20043;-84
2023/08/07 13:01:03;;;;;;;5.00;1.20;;;;;;;;;;10563425;27;20139;-83
2023/08/07 13:06:23;;;;;;;2.80;1.42;;;;;;;;;;10587082;27;20043;-85
2023/08/07 13:11:38;;;;;;;2.10;1.38;;;;;;;;;;10583516;27;20046;-83
2023/08/07 13:16:45;;;;;;;1.60;1.20;;;;;;;;;;10597444;27;20050;-84
2023/08/07 13:21:53;;;;;;;2.13;1.35;;;;;;;;;;10574005;27;20043;-84
2023/08/07 13:27:04;;;;;;;1.45;1.20;;;;;;;;;;10582672;27;20403;-85
2023/08/07 13:32:20;;;;;;;1.98;1.13;;;;;;;;;;10570385;27;20075;-84
2023/08/07 13:37:33;;;;;;;1.90;1.13;;;;;;;;;;10565615;27;20054;-84
2023/08/07 13:42:49;;;;;;;3.70;1.33;;;;;;;;;;10582548;27;20126;-84
2023/08/07 13:48:06;;;;;;;1.83;1.25;;;;;;;;;;10534467;27;20163;-83
2023/08/07 13:53:15;;;;;;;1.60;1.20;;;;;;;;;;10559112;27;20132;-81
2023/08/07 13:58:28;;;;;;;2.53;1.30;;;;;;;;;;10567595;27;20180;-85
2023/08/07 14:03:41;;;;;;;1.80;1.03;;;;;;;;;;10573347;27;20417;-84
2023/08/07 14:08:58;;;;;;;4.93;1.60;;;;;;;;;;10553312;27;20039;-84
2023/08/07 14:14:05;;;;;;;1.63;1.10;;;;;;;;;;10535542;27;20055;-84
2023/08/07 14:19:13;;;;;;;3.97;1.40;;;;;;;;;;10547408;27;20044;-84
2023/08/07 14:24:28;;;;;;;2.03;1.10;;;;;;;;;;10573198;27;20094;-84
2023/08/07 14:29:33;;;;;;;2.30;0.98;;;;;;;;;;10571894;27;20051;-84
2023/08/07 14:34:46;;;;;;;1.08;0.98;;;;;;;;;;10566927;27;20031;-85
2023/08/07 14:39:56;;;;;;;1.20;0.93;;;;;;;;;;10539240;27;20050;-85
2023/08/07 14:45:02;;;;;;;1.17;1.02;;;;;;;;;;10565977;27;20403;-83
2023/08/07 14:50:17;;;;;;;2.40;1.20;;;;;;;;;;10551961;27;20042;-85
2023/08/07 14:55:32;;;;;;;1.98;1.08;;;;;;;;;;10569762;27;20133;-85
2023/08/07 15:00:39;;;;;;;1.25;0.93;;;;;;;;;;10563140;27;20108;-84
2023/08/07 15:05:49;;;;;;;3.88;1.23;;;;;;;;;;10567513;27;20070;-84
2023/08/07 15:11:09;;;;;;;1.73;1.02;;;;;;;;;;10555467;27;20043;-86
2023/08/07 15:16:16;;;;;;;5.05;1.38;;;;;;;;;;10574595;27;20104;-84
2023/08/07 15:21:27;;;;;;;2.53;1.05;;;;;;;;;;10567616;27;20040;-82
2023/08/07 15:26:35;;;;;;;8.38;1.42;;;;;;;;;;10553048;27;20088;-82
2023/08/07 15:31:43;;;;;;;2.35;1.30;;;;;;;;;;10562240;28;20052;-83
2023/08/07 15:36:52;;;;;;;3.13;1.40;;;;;;;;;;10577541;27;20103;-83
2023/08/07 15:42:09;;;;;;;2.47;1.30;;;;;;;;;;10579579;27;20054;-83
2023/08/07 15:47:20;;;;;;;2.97;1.13;;;;;;;;;;10539441;27;20355;-83
2023/08/07 15:52:28;;;;;;;2.13;1.30;;;;;;;;;;10551172;27;20044;-77
2023/08/07 15:57:38;;;;;;;2.00;0.93;;;;;;;;;;10567062;28;20051;-76
2023/08/07 16:02:47;;;;;;;1.27;0.80;;;;;;;;;;10570468;27;20044;-77
2023/08/07 16:07:52;;;;;;;1.95;1.08;;;;;;;;;;10581325;27;20037;-76
2023/08/07 16:12:59;;;;;;;2.25;1.20;;;;;;;;;;10544110;28;20047;-77
2023/08/07 16:18:05;;;;;;;1.58;1.10;;;;;;;;;;10580104;27;20400;-76
2023/08/07 16:23:11;;;;;;;1.83;1.33;;;;;;;;;;10579096;28;20114;-76
2023/08/07 16:28:23;;;;;;;1.58;0.98;;;;;;;;;;10579069;28;20124;-77
2023/08/07 16:33:37;;;;;;;3.83;1.40;;;;;;;;;;10595938;28;20074;-77
2023/08/07 16:38:43;;;;;;;3.90;1.35;;;;;;;;;;10573991;28;20402;-75
2023/08/07 16:43:47;;;;;;;;;;;;;;;;;;10599558;28;20036;-76
2023/08/07 16:48:55;;;;;;;1.67;1.30;;;;;;;;;;10572779;28;19920;-75
2023/08/07 16:54:04;;;;;;;2.17;1.30;;;;;;;;;;10592643;28;20103;-76
2023/08/07 16:59:13;;;;;;;2.58;1.42;;;;;;;;;;10600613;28;20091;-75
2023/08/07 17:04:21;;;;;;;3.15;1.27;;;;;;;;;;10581100;28;20045;-76
2023/08/07 17:09:31;;;;;;;1.85;1.10;;;;;;;;;;10596204;28;20067;-76
2023/08/07 17:14:38;;;;;;;4.15;1.45;;;;;;;;;;10593834;28;20054;-76
2023/08/07 17:19:50;;;;;;;3.03;1.75;;;;;;;;;;10588514;28;20086;-76
2023/08/07 17:24:58;;;;;;;1.80;1.10;;;;;;;;;;10592276;28;20044;-76
2023/08/07 17:30:13;;;;;;;3.40;1.60;;;;;;;;;;10598767;28;20042;-76
2023/08/07 17:35:23;;;;;;;2.55;1.30;;;;;;;;;;10610896;27;20141;-76
2023/08/07 17:40:27;;;;;;;3.33;1.33;;;;;;;;;;10592134;28;20043;-76
2023/08/07 17:45:31;;;;;;;4.57;2.40;;;;;;;;;;10617528;27;20115;-76
2023/08/07 17:50:53;;;;;;;4.03;1.98;;;;;;;;;;10597071;27;20040;-77
2023/08/07 17:56:01;;;;;;;3.65;1.50;;;;;;;;;;10603822;27;20043;-77
2023/08/07 18:01:07;;;;;;;3.42;1.70;;;;;;;;;;10607241;27;20033;-76
2023/08/07 18:06:15;;;;;;;2.40;1.48;;;;;;;;;;10595229;27;20039;-76
2023/08/07 18:11:22;;;;;;;3.60;1.98;;;;;;;;;;10603919;27;20043;-77
2023/08/07 18:16:26;;;;;;;5.43;2.55;;;;;;;;;;10603898;27;20060;-77
2023/08/07 18:21:32;;;;;;;2.42;1.60;;;;;;;;;;10597338;27;20051;-77
2023/08/07 18:26:53;;;;;;;4.93;1.50;;;;;;;;;;10558765;27;20049;-77
2023/08/07 18:32:01;;;;;;;3.13;1.50;;;;;;;;;;10562213;27;20491;-77
2023/08/07 18:37:08;;;;;;;2.38;1.13;;;;;;;;;;10583675;27;20375;-77
2023/08/07 18:42:18;;;;;;;2.17;1.33;;;;;;;;;;10584143;27;20044;-78
2023/08/07 18:47:26;;;;;;;1.15;0.80;;;;;;;;;;10577568;27;20056;-77
2023/08/07 18:52:32;;;;;;;1.65;0.95;;;;;;;;;;10587904;27;20480;-78
2023/08/07 18:57:40;;;;;;;1.77;1.17;;;;;;;;;;10578619;27;20040;-78
2023/08/07 19:02:47;;;;;;;1.58;0.40;;;;;;;;;;10565363;27;20044;-78
2023/08/07 19:08:04;;;;;;;3.97;1.08;;;;;;;;;;10559106;27;20039;-77
2023/08/07 19:13:17;;;;;;;0.98;0.70;;;;;;;;;;10543441;28;20035;-78
2023/08/07 19:18:30;;;;;;;3.15;1.30;;;;;;;;;;10544912;27;20402;-77
2023/08/07 19:23:37;;;;;;;1.70;0.50;;;;;;;;;;10543393;27;20040;-78
2023/08/07 19:28:43;;;;;;;2.15;1.00;;;;;;;;;;10547250;27;20040;-77
2023/08/07 19:33:47;;;;;;;1.90;1.08;;;;;;;;;;10563023;27;20048;-78
2023/08/07 19:38:55;;;;;;;2.13;1.08;;;;;;;;;;10580559;27;20044;-77
2023/08/07 19:44:08;;;;;;;1.15;1.05;;;;;;;;;;10567171;27;20478;-76
2023/08/07 19:49:20;;;;;;;1.48;1.00;;;;;;;;;;10577285;27;20437;-77
2023/08/07 19:54:24;;;;;;;;;;;;;;;;;;10549362;27;20050;-77
2023/08/07 19:59:51;;;;;;;1.52;0.80;;;;;;;;;;10582566;27;19965;-76
2023/08/07 20:04:54;;;;;;;1.30;0.80;;;;;;;;;;10566546;27;20051;-77
2023/08/07 20:09:58;;;;;;;1.50;0.65;;;;;;;;;;10555886;28;20043;-77
2023/08/07 20:15:07;;;;;;;1.23;0.95;;;;;;;;;;10575452;27;20042;-78
2023/08/07 20:20:24;;;;;;;1.05;0.70;;;;;;;;;;10589114;27;20123;-77
2023/08/07 20:25:30;;;;;;;1.17;0.80;;;;;;;;;;10564324;27;20027;-77
2023/08/07 20:30:49;;;;;;;2.15;1.23;;;;;;;;;;10576844;28;20100;-77
2023/08/07 20:35:54;;;;;;;0.82;0.60;;;;;;;;;;10583952;27;20059;-76
2023/08/07 20:41:02;;;;;;;0.90;0.70;;;;;;;;;;10547960;28;20513;-77
2023/08/07 20:46:07;;;;;;;;;;;;;;;;;;10569750;28;20127;-77
2023/08/07 20:51:25;;;;;;;0.95;0.52;;;;;;;;;;10563885;28;19919;-76
2023/08/07 20:56:39;;;;;;;1.33;1.00;;;;;;;;;;10567037;28;20390;-77
2023/08/07 21:01:56;;;;;;;1.60;0.80;;;;;;;;;;10568449;28;20505;-76
2023/08/07 21:07:05;;;;;;;1.13;0.80;;;;;;;;;;10573408;27;20148;-77
2023/08/07 21:12:14;;;;;;;1.40;0.73;;;;;;;;;;10557458;27;20039;-78
2023/08/07 21:17:18;;;;;;;2.30;0.90;;;;;;;;;;10587488;27;20070;-75
2023/08/07 21:22:33;;;;;;;0.45;0.45;;;;;;;;;;10570380;27;20201;-77
2023/08/07 21:27:40;;;;;;;0.80;0.38;;;;;;;;;;10553815;27;20047;-77
2023/08/07 21:32:49;;;;;;;0.50;0.47;;;;;;;;;;10576777;27;20060;-78
2023/08/07 21:38:00;;;;;;;1.50;0.45;;;;;;;;;;10555739;27;20123;-78
2023/08/07 21:43:43;;;;;;;1.40;0.55;;;;;;;;;;10580765;27;20056;-77
2023/08/07 21:49:09;;;;;;;4.30;0.90;;;;;;;;;;10562793;27;20071;-78
2023/08/07 21:54:19;;;;;;;1.42;0.70;;;;;;;;;;10569946;27;20051;-78
2023/08/07 21:59:24;;;;;;;0.80;0.80;;;;;;;;;;10580678;27;20132;-79
2023/08/07 22:04:32;;;;;;;1.05;0.70;;;;;;;;;;10574013;27;20036;-76
2023/08/07 22:09:49;;;;;;;0.70;0.40;;;;;;;;;;10591086;27;20045;-77
2023/08/07 22:14:57;;;;;;;1.20;0.80;;;;;;;;;;10562774;27;20415;-78
2023/08/07 22:20:10;;;;;;;0.77;0.60;;;;;;;;;;10569579;27;20138;-75
2023/08/07 22:25:33;;;;;;;0.75;0.32;;;;;;;;;;10571028;27;20089;-78
2023/08/07 22:30:52;;;;;;;0.63;0.60;;;;;;;;;;10562981;27;20040;-77
2023/08/07 22:36:03;;;;;;;;;;;;;;;;;;10550933;27;20039;-77
2023/08/07 22:41:14;;;;;;;0.73;0.35;;;;;;;;;;10561315;27;19923;-76
2023/08/07 22:46:21;;;;;;;0.85;0.40;;;;;;;;;;10556102;27;20528;-76
2023/08/07 22:51:30;;;;;;;0.38;0.28;;;;;;;;;;10564573;27;20386;-76
2023/08/07 22:56:39;;;;;;;0.65;0.30;;;;;;;;;;10572391;27;20079;-76
2023/08/07 23:01:51;;;;;;;1.67;0.90;;;;;;;;;;10563372;27;20063;-77
2023/08/07 23:06:56;;;;;;;1.65;0.70;;;;;;;;;;10564492;27;20126;-75
2023/08/07 23:12:11;;;;;;;0.43;0.43;;;;;;;;;;10564695;27;20475;-76
2023/08/07 23:17:21;;;;;;;0.63;0.63;;;;;;;;;;10564342;27;20038;-76
2023/08/07 23:22:25;;;;;;;0.88;0.47;;;;;;;;;;10561449;27;20518;-76
2023/08/07 23:27:39;;;;;;;1.38;0.60;;;;;;;;;;10562893;27;20508;-77
2023/08/07 23:32:47;;;;;;;2.95;0.73;;;;;;;;;;10556414;27;20455;-77
2023/08/07 23:37:57;;;;;;;0.32;0.32;;;;;;;;;;10566407;27;20127;-77
2023/08/07 23:43:18;;;;;;;0.30;0.30;;;;;;;;;;10581986;27;20063;-77
2023/08/07 23:48:27;;;;;;;0.95;0.80;;;;;;;;;;10570344;27;20067;-78
2023/08/07 23:53:32;;;;;;;2.03;0.73;;;;;;;;;;10568891;27;20512;-78
2023/08/07 23:58:36;;;;;;;2.42;0.45;;;;;;;;;;10558784;27;20071;-78
